KDGW/DGW METAR and TAF weather

Enter ICAO airport designator
Station Type Date Time Source
KDGW METAR 2023/02/06 00:53 UTC NOAA

KDGW 060053Z AUTO 25011G20KT 10SM CLR 04/M05 A2974 RMK AO2 SLP099 T00441050


Station Type Date Time Source
KDGW Decoded METAR 2023/02/06 00:53 UTC NOAA

DOUGLAS CONVERSE COUNTY, WY, United States (KDGW) 42-48N 105-23W 1499M
Feb 05, 2023 - 07:53 PM EST / 2023.02.06 0053 UTC
Wind: from the WSW (250 degrees) at 13 MPH (11 KT) gusting to 23 MPH (20 KT):0
Visibility: 10 mile(s):0
Sky conditions: clear
Temperature: 39.9 F (4.4 C)
Dew Point: 23.0 F (-5.0 C)
Relative Humidity: 50%
Pressure (altimeter): 29.74 in. Hg (1007 hPa)
ob: KDGW 060053Z AUTO 25011G20KT 10SM CLR 04/M05 A2974 RMK AO2 SLP099 T00441050
cycle: 1

Station Type Date Time Source
KDGW TAF UTC NOAA

Error!

Example: see airport list